createdAt,value
2023-03-22T00:01:47.274Z,8.10
2023-03-22T00:04:13.919Z,8.00
2023-03-22T00:06:40.902Z,8.00
2023-03-22T00:09:07.542Z,8.00
2023-03-22T00:11:34.292Z,7.90
2023-03-22T00:14:01.036Z,7.90
2023-03-22T00:16:27.739Z,7.90
2023-03-22T00:18:54.430Z,7.90
2023-03-22T00:21:21.230Z,7.90
2023-03-22T00:23:47.880Z,7.90
2023-03-22T00:26:14.924Z,7.90
2023-03-22T00:28:42.202Z,7.90
2023-03-22T00:31:09.818Z,7.90
2023-03-22T00:33:36.792Z,7.90
2023-03-22T00:36:05.266Z,8.00
2023-03-22T00:38:42.906Z,8.00
2023-03-22T00:41:11.759Z,8.10
2023-03-22T00:43:38.484Z,8.10
2023-03-22T00:46:05.985Z,8.20
2023-03-22T00:48:32.692Z,8.30
2023-03-22T00:50:59.334Z,8.30
2023-03-22T00:53:26.169Z,8.40
2023-03-22T00:55:52.775Z,8.50
2023-03-22T00:58:19.406Z,8.50
2023-03-22T01:00:46.189Z,8.50
2023-03-22T01:03:14.184Z,8.60
2023-03-22T01:05:40.853Z,8.70
2023-03-22T01:08:10.571Z,8.70
2023-03-22T01:10:41.337Z,8.80
2023-03-22T01:13:08.611Z,8.80
2023-03-22T01:15:35.293Z,8.80
2023-03-22T01:18:02.022Z,8.80
2023-03-22T01:20:28.839Z,8.80
2023-03-22T01:22:55.494Z,8.80
2023-03-22T01:25:22.196Z,8.80
2023-03-22T01:27:48.854Z,8.90
2023-03-22T01:30:15.466Z,8.80
2023-03-22T01:32:42.330Z,8.80
2023-03-22T01:35:09.353Z,8.80
2023-03-22T01:37:36.068Z,8.80
2023-03-22T01:40:04.092Z,8.80
2023-03-22T01:42:30.765Z,8.80
2023-03-22T01:45:16.785Z,8.70
2023-03-22T01:47:49.252Z,8.70
2023-03-22T01:50:17.014Z,8.70
2023-03-22T01:52:44.092Z,8.80
2023-03-22T01:55:11.437Z,8.80
2023-03-22T01:57:38.408Z,8.80
2023-03-22T02:00:09.603Z,8.80
2023-03-22T02:02:36.445Z,8.80
2023-03-22T02:05:04.186Z,8.80
2023-03-22T02:07:31.731Z,8.70
2023-03-22T02:09:59.130Z,8.70
2023-03-22T02:12:25.985Z,8.70
2023-03-22T02:15:01.710Z,8.60
2023-03-22T02:17:28.442Z,8.60
2023-03-22T02:20:10.049Z,8.50
2023-03-22T02:22:53.189Z,8.50
2023-03-22T02:25:38.661Z,8.40
2023-03-22T02:28:21.531Z,8.40
2023-03-22T02:31:11.455Z,8.30
2023-03-22T02:33:41.561Z,8.20
2023-03-22T02:36:19.641Z,8.20
2023-03-22T02:38:46.223Z,8.30
2023-03-22T02:41:17.085Z,8.30
2023-03-22T02:43:46.837Z,8.20
2023-03-22T02:46:13.435Z,8.20
2023-03-22T02:48:42.073Z,8.10
2023-03-22T02:51:12.266Z,8.00
2023-03-22T02:53:40.641Z,7.90
2023-03-22T02:56:07.310Z,7.90
2023-03-22T02:58:39.292Z,7.80
2023-03-22T03:01:10.209Z,7.70
2023-03-22T03:03:37.802Z,7.70
2023-03-22T03:06:08.479Z,7.60
2023-03-22T03:08:35.372Z,7.50
2023-03-22T03:11:01.988Z,7.50
2023-03-22T03:13:28.621Z,7.50
2023-03-22T03:15:58.636Z,7.40
2023-03-22T03:18:25.253Z,7.40
2023-03-22T03:21:04.552Z,7.30
2023-03-22T03:23:49.731Z,7.30
2023-03-22T03:26:28.425Z,7.20
2023-03-22T03:29:01.294Z,7.10
2023-03-22T03:31:30.990Z,7.00
2023-03-22T03:34:00.778Z,7.00
2023-03-22T03:36:28.762Z,6.90
2023-03-22T03:38:56.221Z,6.80
2023-03-22T03:41:25.259Z,6.70
2023-03-22T03:43:53.082Z,6.70
2023-03-22T03:46:20.891Z,6.60
2023-03-22T03:48:49.467Z,6.60
2023-03-22T03:51:16.361Z,6.60
2023-03-22T03:53:42.992Z,6.50
2023-03-22T03:56:10.057Z,6.40
2023-03-22T03:58:36.742Z,6.40
2023-03-22T04:01:04.076Z,6.30
2023-03-22T04:03:31.605Z,6.30
2023-03-22T04:05:59.738Z,6.20
2023-03-22T04:08:26.877Z,6.20
2023-03-22T04:10:53.556Z,6.10
2023-03-22T04:13:24.713Z,6.10
2023-03-22T04:15:55.157Z,6.10
2023-03-22T04:18:21.765Z,6.10
2023-03-22T04:20:49.565Z,6.00
2023-03-22T04:23:16.344Z,6.00
2023-03-22T04:25:43.653Z,5.90
2023-03-22T04:28:10.338Z,5.90
2023-03-22T04:30:37.156Z,5.80
2023-03-22T04:33:07.162Z,5.80
2023-03-22T04:35:34.709Z,5.80
2023-03-22T04:38:01.459Z,5.70
2023-03-22T04:40:31.655Z,5.70
2023-03-22T04:42:58.896Z,5.70
2023-03-22T04:45:29.139Z,5.70
2023-03-22T04:47:56.265Z,5.70
2023-03-22T04:50:23.281Z,5.60
2023-03-22T04:52:50.379Z,5.70
2023-03-22T04:55:17.066Z,5.70
2023-03-22T04:57:43.670Z,5.70
2023-03-22T05:00:10.897Z,5.70
2023-03-22T05:02:41.435Z,5.70
2023-03-22T05:05:08.381Z,5.70
2023-03-22T05:07:35.031Z,5.70
2023-03-22T05:10:01.645Z,5.70
2023-03-22T05:12:28.499Z,5.70
2023-03-22T05:14:55.357Z,5.70
2023-03-22T05:17:22.485Z,5.70
2023-03-22T05:19:49.109Z,5.70
2023-03-22T05:22:15.733Z,5.80
2023-03-22T05:24:42.550Z,5.80
2023-03-22T05:27:10.881Z,5.80
2023-03-22T05:29:37.588Z,5.90
2023-03-22T05:32:04.290Z,5.90
2023-03-22T05:34:35.784Z,6.00
2023-03-22T05:37:02.877Z,6.00
2023-03-22T05:39:29.582Z,6.10
2023-03-22T05:41:56.204Z,6.20
2023-03-22T05:44:22.878Z,6.30
2023-03-22T05:46:49.563Z,6.40
2023-03-22T05:49:16.281Z,6.50
2023-03-22T05:51:43.584Z,6.60
2023-03-22T05:54:10.405Z,6.70
2023-03-22T05:56:37.096Z,6.80
2023-03-22T05:59:04.861Z,6.90
2023-03-22T06:01:33.365Z,7.00
2023-03-22T06:04:00.492Z,7.10
2023-03-22T06:06:28.112Z,7.20
2023-03-22T06:09:01.663Z,7.30
2023-03-22T06:11:35.370Z,7.60
2023-03-22T06:14:02.055Z,8.00
2023-03-22T06:16:28.729Z,8.50
2023-03-22T06:18:55.422Z,9.20
2023-03-22T06:21:22.249Z,9.80
2023-03-22T06:23:48.852Z,10.30
2023-03-22T06:26:15.449Z,10.80
2023-03-22T06:28:42.178Z,11.30
2023-03-22T06:31:09.764Z,11.80
2023-03-22T06:33:36.851Z,12.10
2023-03-22T06:36:03.876Z,12.40
2023-03-22T06:38:30.686Z,12.80
2023-03-22T06:40:57.322Z,13.00
2023-03-22T06:43:23.905Z,13.20
2023-03-22T06:45:50.614Z,13.30
2023-03-22T06:48:17.300Z,13.40
2023-03-22T06:50:44.767Z,13.40
2023-03-22T06:53:11.553Z,13.50
2023-03-22T06:55:38.256Z,13.40
2023-03-22T06:58:04.893Z,13.50
2023-03-22T07:00:32.448Z,13.50
2023-03-22T07:02:59.176Z,13.60
2023-03-22T07:05:25.789Z,13.80
2023-03-22T07:07:52.395Z,14.20
2023-03-22T07:10:19.056Z,14.80
2023-03-22T07:12:45.749Z,15.40
2023-03-22T07:15:12.386Z,16.10
2023-03-22T07:17:39.046Z,17.00
2023-03-22T07:20:06.253Z,18.20
2023-03-22T07:22:32.880Z,19.60
2023-03-22T07:25:01.650Z,20.90
2023-03-22T07:27:28.546Z,21.80
2023-03-22T07:29:55.246Z,22.00
2023-03-22T07:32:21.941Z,22.10
2023-03-22T07:34:48.561Z,22.10
2023-03-22T07:37:15.364Z,21.80
2023-03-22T07:39:42.041Z,21.60
2023-03-22T07:42:09.530Z,21.40
2023-03-22T07:44:36.223Z,21.10
2023-03-22T07:47:02.906Z,21.10
2023-03-22T07:49:31.330Z,21.60
2023-03-22T07:51:57.967Z,22.40
2023-03-22T07:54:33.310Z,23.10
2023-03-22T07:57:01.097Z,23.60
2023-03-22T07:59:27.863Z,24.40
2023-03-22T08:01:54.642Z,25.20
2023-03-22T08:04:22.475Z,26.00
2023-03-22T08:06:49.775Z,26.70
2023-03-22T08:09:16.575Z,27.60
2023-03-22T08:11:43.292Z,28.40
2023-03-22T08:14:09.980Z,29.20
2023-03-22T08:16:38.307Z,30.20
2023-03-22T08:19:05.236Z,31.20
2023-03-22T08:21:31.898Z,31.90
2023-03-22T08:23:58.579Z,32.10
2023-03-22T08:26:25.476Z,32.40
2023-03-22T08:28:52.163Z,33.00
2023-03-22T08:31:20.100Z,33.60
2023-03-22T08:33:47.162Z,33.80
2023-03-22T08:36:15.276Z,34.00
2023-03-22T08:38:42.873Z,34.40
2023-03-22T08:41:09.514Z,34.50
2023-03-22T08:43:36.114Z,34.20
2023-03-22T08:46:02.820Z,34.00
2023-03-22T08:48:30.754Z,33.40
2023-03-22T08:50:58.068Z,33.10
2023-03-22T08:53:24.786Z,32.80
2023-03-22T08:55:51.361Z,32.50
2023-03-22T08:58:19.907Z,32.10
2023-03-22T09:00:49.430Z,32.30
2023-03-22T09:03:16.796Z,32.50
2023-03-22T09:05:43.737Z,32.30
2023-03-22T09:08:18.195Z,32.50
2023-03-22T09:10:51.611Z,32.90
2023-03-22T09:13:18.771Z,33.20
2023-03-22T09:15:45.404Z,33.70
2023-03-22T09:18:12.183Z,34.00
2023-03-22T09:20:39.401Z,34.30
2023-03-22T09:23:06.276Z,34.30
2023-03-22T09:25:32.880Z,34.30
2023-03-22T09:27:59.471Z,34.00
2023-03-22T09:30:26.314Z,33.60
2023-03-22T09:32:52.983Z,33.40
2023-03-22T09:35:19.643Z,33.40
2023-03-22T09:37:46.833Z,33.30
2023-03-22T09:40:13.642Z,33.50
2023-03-22T09:42:42.491Z,33.80
2023-03-22T09:45:17.899Z,34.40
2023-03-22T09:47:46.916Z,34.90
2023-03-22T09:50:20.134Z,35.00
2023-03-22T09:52:46.816Z,34.90
2023-03-22T09:55:33.697Z,34.50
2023-03-22T09:58:16.629Z,34.00
2023-03-22T10:00:43.360Z,33.50
2023-03-22T10:03:21.245Z,33.70
2023-03-22T10:05:54.013Z,33.70
2023-03-22T10:08:29.837Z,33.60
2023-03-22T10:10:57.608Z,33.30
2023-03-22T10:13:27.246Z,32.70
2023-03-22T10:15:55.456Z,32.40
2023-03-22T10:18:24.809Z,32.10
2023-03-22T10:20:54.490Z,31.50
2023-03-22T10:23:26.885Z,30.80
2023-03-22T10:25:53.747Z,30.40
2023-03-22T10:28:22.155Z,30.00
2023-03-22T10:30:53.447Z,30.10
2023-03-22T10:33:28.366Z,30.00
2023-03-22T10:35:55.722Z,29.90
2023-03-22T10:38:24.812Z,29.50
2023-03-22T10:40:52.833Z,29.40
2023-03-22T10:43:30.361Z,29.10
2023-03-22T10:45:58.071Z,28.70
2023-03-22T10:48:29.737Z,28.40
2023-03-22T10:50:57.095Z,28.20
2023-03-22T10:53:34.839Z,27.70
2023-03-22T10:56:01.460Z,27.30
2023-03-22T10:58:29.699Z,27.20
2023-03-22T11:00:59.519Z,27.10
2023-03-22T11:03:29.124Z,26.80
2023-03-22T11:06:01.924Z,26.30
2023-03-22T11:08:28.672Z,25.80
2023-03-22T11:10:59.290Z,25.70
2023-03-22T11:13:26.106Z,25.80
2023-03-22T11:15:55.163Z,25.90
2023-03-22T11:18:21.955Z,25.60
2023-03-22T11:20:59.441Z,25.50
2023-03-22T11:23:26.494Z,25.10
2023-03-22T11:25:55.554Z,25.00
2023-03-22T11:28:26.012Z,25.00
2023-03-22T11:30:58.407Z,24.90
2023-03-22T11:33:26.000Z,24.90
2023-03-22T11:35:57.199Z,24.90
2023-03-22T11:38:29.716Z,24.90
2023-03-22T11:41:01.206Z,24.70
2023-03-22T11:43:36.055Z,24.50
2023-03-22T11:46:02.989Z,24.40
2023-03-22T11:48:31.690Z,24.20
2023-03-22T11:51:07.954Z,23.70
2023-03-22T11:53:37.111Z,23.10
2023-03-22T11:56:07.460Z,22.50
2023-03-22T11:58:37.142Z,22.30
2023-03-22T12:01:04.609Z,22.10
2023-03-22T12:03:36.871Z,21.80
2023-03-22T12:06:08.122Z,21.50
2023-03-22T12:08:42.749Z,21.30
2023-03-22T12:11:15.938Z,21.10
2023-03-22T12:13:51.472Z,21.00
2023-03-22T12:16:24.755Z,20.80
2023-03-22T12:19:01.159Z,20.60
2023-03-22T12:21:28.480Z,20.50
2023-03-22T12:23:58.539Z,20.50
2023-03-22T12:26:26.444Z,20.50
2023-03-22T12:29:15.001Z,20.40
2023-03-22T12:31:47.531Z,20.30
2023-03-22T12:34:18.342Z,20.30
2023-03-22T12:36:47.633Z,20.10
2023-03-22T12:39:24.141Z,20.10
2023-03-22T12:41:52.802Z,20.00
2023-03-22T12:44:25.541Z,19.90
2023-03-22T12:46:56.008Z,19.90
2023-03-22T12:49:40.607Z,19.90
2023-03-22T12:52:20.462Z,19.90
2023-03-22T12:54:49.309Z,19.90
2023-03-22T12:57:16.760Z,19.90
2023-03-22T12:59:45.617Z,19.90
2023-03-22T13:02:23.403Z,19.90
2023-03-22T13:04:51.944Z,19.80
2023-03-22T13:07:30.500Z,19.80
2023-03-22T13:09:58.504Z,19.80
2023-03-22T13:12:28.376Z,19.80
2023-03-22T13:14:58.136Z,19.80
2023-03-22T13:17:25.309Z,19.90
2023-03-22T13:19:59.480Z,19.90
2023-03-22T13:22:26.092Z,19.90
2023-03-22T13:24:58.164Z,19.90
2023-03-22T13:27:35.513Z,19.80
2023-03-22T13:30:04.696Z,19.80
2023-03-22T13:32:33.444Z,19.80
2023-03-22T13:35:00.771Z,19.70
2023-03-22T13:37:35.674Z,19.70
2023-03-22T13:40:11.925Z,19.60
2023-03-22T13:42:39.805Z,19.60
2023-03-22T13:45:26.454Z,19.60
2023-03-22T13:48:04.304Z,19.50
2023-03-22T13:50:31.503Z,19.50
2023-03-22T13:53:06.741Z,19.40
2023-03-22T13:55:41.560Z,19.30
2023-03-22T13:58:32.983Z,19.30
2023-03-22T14:00:59.862Z,19.20
2023-03-22T14:03:29.928Z,19.20
2023-03-22T14:06:17.412Z,19.20
2023-03-22T14:08:45.798Z,19.20
2023-03-22T14:11:28.467Z,19.10
2023-03-22T14:14:18.230Z,19.00
2023-03-22T14:16:52.703Z,19.00
2023-03-22T14:19:22.042Z,19.00
